sensor_id;sensor_type;location;lat;lon;timestamp;P1;durP1;ratioP1;P2;durP2;ratioP2
11588;SDS011;5850;51.360;12.362;2023-05-07T00:01:14;10.87;;;9.73;;
11588;SDS011;5850;51.360;12.362;2023-05-07T00:03:44;12.77;;;10.40;;
11588;SDS011;5850;51.360;12.362;2023-05-07T00:06:14;10.93;;;9.77;;
11588;SDS011;5850;51.360;12.362;2023-05-07T00:08:42;11.40;;;10.00;;
11588;SDS011;5850;51.360;12.362;2023-05-07T00:11:10;12.67;;;9.77;;
11588;SDS011;5850;51.360;12.362;2023-05-07T00:13:38;12.80;;;10.00;;
11588;SDS011;5850;51.360;12.362;2023-05-07T00:16:07;10.47;;;9.00;;
11588;SDS011;5850;51.360;12.362;2023-05-07T00:18:35;12.00;;;9.37;;
11588;SDS011;5850;51.360;12.362;2023-05-07T00:21:03;12.67;;;9.27;;
11588;SDS011;5850;51.360;12.362;2023-05-07T00:23:31;10.90;;;8.87;;
11588;SDS011;5850;51.360;12.362;2023-05-07T00:26:00;11.93;;;9.27;;
11588;SDS011;5850;51.360;12.362;2023-05-07T00:28:28;11.67;;;9.67;;
11588;SDS011;5850;51.360;12.362;2023-05-07T00:30:57;9.10;;;8.10;;
11588;SDS011;5850;51.360;12.362;2023-05-07T00:33:25;12.23;;;9.20;;
11588;SDS011;5850;51.360;12.362;2023-05-07T00:35:54;9.90;;;8.73;;
11588;SDS011;5850;51.360;12.362;2023-05-07T00:38:22;12.60;;;9.87;;
11588;SDS011;5850;51.360;12.362;2023-05-07T00:45:11;11.03;;;9.83;;
11588;SDS011;5850;51.360;12.362;2023-05-07T01:15:21;12.20;;;10.20;;
11588;SDS011;5850;51.360;12.362;2023-05-07T01:17:50;13.63;;;10.70;;
11588;SDS011;5850;51.360;12.362;2023-05-07T01:20:19;11.67;;;10.37;;
11588;SDS011;5850;51.360;12.362;2023-05-07T01:22:47;14.00;;;11.23;;
11588;SDS011;5850;51.360;12.362;2023-05-07T01:25:16;14.33;;;11.77;;
11588;SDS011;5850;51.360;12.362;2023-05-07T01:27:45;13.73;;;11.07;;
11588;SDS011;5850;51.360;12.362;2023-05-07T01:30:17;13.30;;;11.73;;
11588;SDS011;5850;51.360;12.362;2023-05-07T01:32:50;13.40;;;11.90;;
11588;SDS011;5850;51.360;12.362;2023-05-07T01:35:32;15.67;;;11.87;;
11588;SDS011;5850;51.360;12.362;2023-05-07T01:38:06;16.20;;;12.03;;
11588;SDS011;5850;51.360;12.362;2023-05-07T01:40:35;16.63;;;13.50;;
11588;SDS011;5850;51.360;12.362;2023-05-07T01:43:03;14.10;;;11.93;;
11588;SDS011;5850;51.360;12.362;2023-05-07T01:45:33;14.87;;;12.93;;
11588;SDS011;5850;51.360;12.362;2023-05-07T01:48:02;15.13;;;12.57;;
11588;SDS011;5850;51.360;12.362;2023-05-07T01:50:31;15.90;;;13.23;;
11588;SDS011;5850;51.360;12.362;2023-05-07T01:53:01;16.17;;;13.53;;
11588;SDS011;5850;51.360;12.362;2023-05-07T01:55:30;16.00;;;13.73;;
11588;SDS011;5850;51.360;12.362;2023-05-07T01:57:58;17.57;;;13.90;;
11588;SDS011;5850;51.360;12.362;2023-05-07T02:00:27;17.23;;;14.07;;
11588;SDS011;5850;51.360;12.362;2023-05-07T02:02:55;18.47;;;14.77;;
11588;SDS011;5850;51.360;12.362;2023-05-07T02:05:24;24.33;;;16.77;;
11588;SDS011;5850;51.360;12.362;2023-05-07T02:07:52;16.53;;;14.53;;
11588;SDS011;5850;51.360;12.362;2023-05-07T02:10:21;17.60;;;14.50;;
11588;SDS011;5850;51.360;12.362;2023-05-07T02:12:49;19.60;;;15.50;;
11588;SDS011;5850;51.360;12.362;2023-05-07T02:15:18;16.50;;;14.43;;
11588;SDS011;5850;51.360;12.362;2023-05-07T02:18:00;18.17;;;15.27;;
11588;SDS011;5850;51.360;12.362;2023-05-07T02:20:34;19.83;;;15.37;;
11588;SDS011;5850;51.360;12.362;2023-05-07T02:23:02;17.07;;;15.27;;
11588;SDS011;5850;51.360;12.362;2023-05-07T02:25:31;17.97;;;14.50;;
11588;SDS011;5850;51.360;12.362;2023-05-07T02:27:59;18.60;;;15.10;;
11588;SDS011;5850;51.360;12.362;2023-05-07T02:30:29;16.60;;;14.77;;
11588;SDS011;5850;51.360;12.362;2023-05-07T02:32:59;16.30;;;14.17;;
11588;SDS011;5850;51.360;12.362;2023-05-07T02:35:27;19.67;;;15.80;;
11588;SDS011;5850;51.360;12.362;2023-05-07T02:37:56;16.13;;;14.40;;
11588;SDS011;5850;51.360;12.362;2023-05-07T02:40:24;18.70;;;14.87;;
11588;SDS011;5850;51.360;12.362;2023-05-07T02:42:52;16.70;;;15.00;;
11588;SDS011;5850;51.360;12.362;2023-05-07T02:45:22;16.03;;;14.33;;
11588;SDS011;5850;51.360;12.362;2023-05-07T02:47:51;15.83;;;12.93;;
11588;SDS011;5850;51.360;12.362;2023-05-07T02:50:19;16.80;;;14.50;;
11588;SDS011;5850;51.360;12.362;2023-05-07T02:52:48;18.20;;;14.43;;
11588;SDS011;5850;51.360;12.362;2023-05-07T02:55:16;17.30;;;14.97;;
11588;SDS011;5850;51.360;12.362;2023-05-07T02:57:45;16.50;;;14.30;;
11588;SDS011;5850;51.360;12.362;2023-05-07T03:00:14;18.73;;;15.37;;
11588;SDS011;5850;51.360;12.362;2023-05-07T03:02:46;16.90;;;15.07;;
11588;SDS011;5850;51.360;12.362;2023-05-07T03:05:15;15.67;;;14.00;;
11588;SDS011;5850;51.360;12.362;2023-05-07T03:07:43;17.13;;;15.27;;
11588;SDS011;5850;51.360;12.362;2023-05-07T03:10:12;18.30;;;15.30;;
11588;SDS011;5850;51.360;12.362;2023-05-07T03:12:41;17.13;;;14.43;;
11588;SDS011;5850;51.360;12.362;2023-05-07T03:15:09;17.60;;;14.67;;
11588;SDS011;5850;51.360;12.362;2023-05-07T03:17:38;16.57;;;14.17;;
11588;SDS011;5850;51.360;12.362;2023-05-07T03:20:07;20.03;;;14.13;;
11588;SDS011;5850;51.360;12.362;2023-05-07T03:22:37;19.97;;;14.10;;
11588;SDS011;5850;51.360;12.362;2023-05-07T03:25:06;16.80;;;14.63;;
11588;SDS011;5850;51.360;12.362;2023-05-07T03:27:35;16.37;;;14.67;;
11588;SDS011;5850;51.360;12.362;2023-05-07T03:30:04;17.27;;;14.37;;
11588;SDS011;5850;51.360;12.362;2023-05-07T03:32:34;15.47;;;13.73;;
11588;SDS011;5850;51.360;12.362;2023-05-07T03:35:02;16.93;;;15.13;;
11588;SDS011;5850;51.360;12.362;2023-05-07T03:37:31;16.67;;;13.43;;
11588;SDS011;5850;51.360;12.362;2023-05-07T03:39:59;16.63;;;14.23;;
11588;SDS011;5850;51.360;12.362;2023-05-07T03:42:28;18.73;;;14.30;;
11588;SDS011;5850;51.360;12.362;2023-05-07T03:44:56;17.63;;;14.50;;
11588;SDS011;5850;51.360;12.362;2023-05-07T03:47:25;18.43;;;15.03;;
11588;SDS011;5850;51.360;12.362;2023-05-07T03:49:53;16.73;;;14.70;;
11588;SDS011;5850;51.360;12.362;2023-05-07T03:52:22;16.23;;;14.50;;
11588;SDS011;5850;51.360;12.362;2023-05-07T03:54:52;17.03;;;14.70;;
11588;SDS011;5850;51.360;12.362;2023-05-07T03:57:21;18.17;;;14.93;;
11588;SDS011;5850;51.360;12.362;2023-05-07T03:59:49;16.37;;;14.67;;
11588;SDS011;5850;51.360;12.362;2023-05-07T04:02:17;18.67;;;14.20;;
11588;SDS011;5850;51.360;12.362;2023-05-07T04:04:48;18.07;;;14.77;;
11588;SDS011;5850;51.360;12.362;2023-05-07T04:07:16;19.57;;;15.70;;
11588;SDS011;5850;51.360;12.362;2023-05-07T04:09:44;16.87;;;14.20;;
11588;SDS011;5850;51.360;12.362;2023-05-07T04:12:13;18.07;;;15.27;;
11588;SDS011;5850;51.360;12.362;2023-05-07T04:14:42;18.03;;;15.20;;
11588;SDS011;5850;51.360;12.362;2023-05-07T04:17:10;18.23;;;14.43;;
11588;SDS011;5850;51.360;12.362;2023-05-07T04:19:39;17.07;;;14.47;;
11588;SDS011;5850;51.360;12.362;2023-05-07T04:22:11;18.33;;;14.43;;
11588;SDS011;5850;51.360;12.362;2023-05-07T04:24:40;17.73;;;14.83;;
11588;SDS011;5850;51.360;12.362;2023-05-07T04:27:08;17.67;;;14.33;;
11588;SDS011;5850;51.360;12.362;2023-05-07T04:29:36;21.90;;;16.17;;
11588;SDS011;5850;51.360;12.362;2023-05-07T04:32:09;19.30;;;15.17;;
11588;SDS011;5850;51.360;12.362;2023-05-07T04:34:37;19.80;;;15.90;;
11588;SDS011;5850;51.360;12.362;2023-05-07T04:37:06;17.17;;;14.47;;
11588;SDS011;5850;51.360;12.362;2023-05-07T04:39:34;15.87;;;14.07;;
11588;SDS011;5850;51.360;12.362;2023-05-07T04:42:02;18.17;;;14.57;;
11588;SDS011;5850;51.360;12.362;2023-05-07T04:44:31;20.07;;;15.00;;
11588;SDS011;5850;51.360;12.362;2023-05-07T04:47:00;16.43;;;13.70;;
11588;SDS011;5850;51.360;12.362;2023-05-07T04:49:29;19.40;;;14.37;;
11588;SDS011;5850;51.360;12.362;2023-05-07T04:51:57;18.00;;;14.97;;
11588;SDS011;5850;51.360;12.362;2023-05-07T04:54:25;17.70;;;14.30;;
11588;SDS011;5850;51.360;12.362;2023-05-07T04:56:53;15.53;;;13.37;;
11588;SDS011;5850;51.360;12.362;2023-05-07T04:59:22;16.00;;;12.83;;
11588;SDS011;5850;51.360;12.362;2023-05-07T05:01:50;16.50;;;13.93;;
11588;SDS011;5850;51.360;12.362;2023-05-07T05:04:19;17.97;;;13.77;;
11588;SDS011;5850;51.360;12.362;2023-05-07T05:06:47;16.77;;;13.90;;
11588;SDS011;5850;51.360;12.362;2023-05-07T05:09:15;16.07;;;13.70;;
11588;SDS011;5850;51.360;12.362;2023-05-07T05:11:44;17.90;;;12.90;;
11588;SDS011;5850;51.360;12.362;2023-05-07T05:14:14;17.17;;;12.10;;
11588;SDS011;5850;51.360;12.362;2023-05-07T05:16:42;14.63;;;12.43;;
11588;SDS011;5850;51.360;12.362;2023-05-07T05:19:11;12.63;;;10.67;;
11588;SDS011;5850;51.360;12.362;2023-05-07T05:21:39;13.77;;;12.27;;
11588;SDS011;5850;51.360;12.362;2023-05-07T05:24:07;15.00;;;12.00;;
11588;SDS011;5850;51.360;12.362;2023-05-07T05:26:36;14.77;;;12.43;;
11588;SDS011;5850;51.360;12.362;2023-05-07T05:29:04;14.90;;;12.47;;
11588;SDS011;5850;51.360;12.362;2023-05-07T05:31:34;14.60;;;12.17;;
11588;SDS011;5850;51.360;12.362;2023-05-07T05:34:02;12.93;;;11.20;;
11588;SDS011;5850;51.360;12.362;2023-05-07T05:36:31;11.47;;;10.27;;
11588;SDS011;5850;51.360;12.362;2023-05-07T05:38:59;13.13;;;11.37;;
11588;SDS011;5850;51.360;12.362;2023-05-07T05:41:27;14.20;;;11.90;;
11588;SDS011;5850;51.360;12.362;2023-05-07T05:43:55;13.40;;;11.23;;
11588;SDS011;5850;51.360;12.362;2023-05-07T05:46:24;13.90;;;10.73;;
11588;SDS011;5850;51.360;12.362;2023-05-07T05:48:52;12.60;;;10.37;;
11588;SDS011;5850;51.360;12.362;2023-05-07T05:51:21;12.57;;;10.47;;
11588;SDS011;5850;51.360;12.362;2023-05-07T05:53:49;16.30;;;10.43;;
11588;SDS011;5850;51.360;12.362;2023-05-07T05:56:18;11.60;;;10.37;;
11588;SDS011;5850;51.360;12.362;2023-05-07T05:58:47;12.63;;;9.40;;
11588;SDS011;5850;51.360;12.362;2023-05-07T06:01:15;12.83;;;10.00;;
11588;SDS011;5850;51.360;12.362;2023-05-07T06:03:45;10.23;;;9.10;;
11588;SDS011;5850;51.360;12.362;2023-05-07T06:06:14;11.17;;;9.53;;
11588;SDS011;5850;51.360;12.362;2023-05-07T06:08:42;11.07;;;9.07;;
11588;SDS011;5850;51.360;12.362;2023-05-07T06:11:11;13.70;;;10.53;;
11588;SDS011;5850;51.360;12.362;2023-05-07T06:13:39;11.57;;;10.37;;
11588;SDS011;5850;51.360;12.362;2023-05-07T06:16:08;11.63;;;10.43;;
11588;SDS011;5850;51.360;12.362;2023-05-07T06:18:36;11.87;;;10.53;;
11588;SDS011;5850;51.360;12.362;2023-05-07T06:21:05;13.27;;;10.90;;
11588;SDS011;5850;51.360;12.362;2023-05-07T06:23:33;12.07;;;10.40;;
11588;SDS011;5850;51.360;12.362;2023-05-07T06:26:01;13.17;;;10.83;;
11588;SDS011;5850;51.360;12.362;2023-05-07T06:28:30;12.40;;;10.77;;
11588;SDS011;5850;51.360;12.362;2023-05-07T06:31:11;14.57;;;10.70;;
11588;SDS011;5850;51.360;12.362;2023-05-07T06:33:41;15.07;;;11.93;;
11588;SDS011;5850;51.360;12.362;2023-05-07T06:36:12;13.60;;;11.93;;
11588;SDS011;5850;51.360;12.362;2023-05-07T06:38:40;12.20;;;10.90;;
11588;SDS011;5850;51.360;12.362;2023-05-07T06:41:08;12.73;;;11.10;;
11588;SDS011;5850;51.360;12.362;2023-05-07T06:43:36;13.30;;;11.63;;
11588;SDS011;5850;51.360;12.362;2023-05-07T06:46:05;14.47;;;11.97;;
11588;SDS011;5850;51.360;12.362;2023-05-07T06:48:34;13.20;;;11.10;;
11588;SDS011;5850;51.360;12.362;2023-05-07T06:51:02;14.67;;;11.97;;
11588;SDS011;5850;51.360;12.362;2023-05-07T06:53:31;12.97;;;11.30;;
11588;SDS011;5850;51.360;12.362;2023-05-07T06:55:59;13.97;;;11.70;;
11588;SDS011;5850;51.360;12.362;2023-05-07T06:58:27;13.20;;;10.60;;
11588;SDS011;5850;51.360;12.362;2023-05-07T07:00:56;13.03;;;11.17;;
11588;SDS011;5850;51.360;12.362;2023-05-07T07:03:24;12.47;;;10.90;;
11588;SDS011;5850;51.360;12.362;2023-05-07T07:05:53;12.33;;;10.87;;
11588;SDS011;5850;51.360;12.362;2023-05-07T07:08:21;12.10;;;10.57;;
11588;SDS011;5850;51.360;12.362;2023-05-07T07:10:50;12.60;;;10.13;;
11588;SDS011;5850;51.360;12.362;2023-05-07T07:13:18;13.63;;;11.30;;
11588;SDS011;5850;51.360;12.362;2023-05-07T07:15:47;11.97;;;9.77;;
11588;SDS011;5850;51.360;12.362;2023-05-07T07:18:15;11.87;;;9.83;;
11588;SDS011;5850;51.360;12.362;2023-05-07T07:20:43;11.47;;;9.37;;
11588;SDS011;5850;51.360;12.362;2023-05-07T07:23:11;10.10;;;8.97;;
11588;SDS011;5850;51.360;12.362;2023-05-07T07:25:40;10.70;;;8.87;;
11588;SDS011;5850;51.360;12.362;2023-05-07T07:28:08;10.17;;;9.03;;
11588;SDS011;5850;51.360;12.362;2023-05-07T07:30:37;8.40;;;7.43;;
11588;SDS011;5850;51.360;12.362;2023-05-07T07:33:06;8.10;;;7.30;;
11588;SDS011;5850;51.360;12.362;2023-05-07T07:35:34;10.03;;;7.83;;
11588;SDS011;5850;51.360;12.362;2023-05-07T07:38:03;8.63;;;7.73;;
11588;SDS011;5850;51.360;12.362;2023-05-07T07:40:31;8.93;;;7.83;;
11588;SDS011;5850;51.360;12.362;2023-05-07T07:43:02;9.10;;;7.57;;
11588;SDS011;5850;51.360;12.362;2023-05-07T07:45:31;8.27;;;7.17;;
11588;SDS011;5850;51.360;12.362;2023-05-07T07:47:59;8.30;;;7.50;;
11588;SDS011;5850;51.360;12.362;2023-05-07T07:50:28;8.80;;;7.73;;
11588;SDS011;5850;51.360;12.362;2023-05-07T07:53:10;8.00;;;7.20;;
11588;SDS011;5850;51.360;12.362;2023-05-07T07:55:39;8.07;;;7.27;;
11588;SDS011;5850;51.360;12.362;2023-05-07T07:58:07;7.33;;;6.63;;
11588;SDS011;5850;51.360;12.362;2023-05-07T08:00:36;7.80;;;7.03;;
11588;SDS011;5850;51.360;12.362;2023-05-07T08:03:04;7.60;;;6.73;;
11588;SDS011;5850;51.360;12.362;2023-05-07T08:05:33;7.80;;;6.70;;
11588;SDS011;5850;51.360;12.362;2023-05-07T08:08:02;7.03;;;6.33;;
11588;SDS011;5850;51.360;12.362;2023-05-07T08:10:32;7.00;;;6.37;;
11588;SDS011;5850;51.360;12.362;2023-05-07T08:13:04;7.40;;;6.23;;
11588;SDS011;5850;51.360;12.362;2023-05-07T08:15:33;6.40;;;5.80;;
11588;SDS011;5850;51.360;12.362;2023-05-07T08:18:01;6.53;;;5.73;;
11588;SDS011;5850;51.360;12.362;2023-05-07T08:20:30;6.43;;;5.83;;
11588;SDS011;5850;51.360;12.362;2023-05-07T08:22:58;5.90;;;5.30;;
11588;SDS011;5850;51.360;12.362;2023-05-07T08:25:26;6.43;;;5.83;;
11588;SDS011;5850;51.360;12.362;2023-05-07T08:27:55;6.57;;;5.77;;
11588;SDS011;5850;51.360;12.362;2023-05-07T08:30:23;5.97;;;5.40;;
11588;SDS011;5850;51.360;12.362;2023-05-07T08:32:51;5.60;;;5.10;;
11588;SDS011;5850;51.360;12.362;2023-05-07T08:35:20;5.73;;;5.20;;
11588;SDS011;5850;51.360;12.362;2023-05-07T08:37:48;5.40;;;4.90;;
11588;SDS011;5850;51.360;12.362;2023-05-07T08:40:17;5.53;;;5.03;;
11588;SDS011;5850;51.360;12.362;2023-05-07T08:42:48;5.87;;;5.37;;
11588;SDS011;5850;51.360;12.362;2023-05-07T08:45:17;6.27;;;5.67;;
11588;SDS011;5850;51.360;12.362;2023-05-07T08:47:49;6.33;;;5.73;;
11588;SDS011;5850;51.360;12.362;2023-05-07T08:50:20;5.93;;;5.37;;
11588;SDS011;5850;51.360;12.362;2023-05-07T08:52:49;8.27;;;6.17;;
11588;SDS011;5850;51.360;12.362;2023-05-07T08:55:17;6.10;;;5.50;;
11588;SDS011;5850;51.360;12.362;2023-05-07T08:57:46;6.43;;;5.40;;
11588;SDS011;5850;51.360;12.362;2023-05-07T09:00:15;7.87;;;6.03;;
11588;SDS011;5850;51.360;12.362;2023-05-07T09:02:44;6.67;;;6.07;;
11588;SDS011;5850;51.360;12.362;2023-05-07T09:05:12;7.77;;;5.90;;
11588;SDS011;5850;51.360;12.362;2023-05-07T09:07:41;6.97;;;6.00;;
11588;SDS011;5850;51.360;12.362;2023-05-07T09:10:09;6.97;;;5.87;;
11588;SDS011;5850;51.360;12.362;2023-05-07T09:12:39;6.80;;;6.10;;
11588;SDS011;5850;51.360;12.362;2023-05-07T09:15:08;6.63;;;5.57;;
11588;SDS011;5850;51.360;12.362;2023-05-07T09:17:37;6.67;;;6.07;;
11588;SDS011;5850;51.360;12.362;2023-05-07T09:20:07;8.10;;;6.77;;
11588;SDS011;5850;51.360;12.362;2023-05-07T09:22:37;6.57;;;5.97;;
11588;SDS011;5850;51.360;12.362;2023-05-07T09:25:06;7.90;;;6.43;;
11588;SDS011;5850;51.360;12.362;2023-05-07T09:27:36;7.47;;;6.27;;
11588;SDS011;5850;51.360;12.362;2023-05-07T09:30:05;8.43;;;6.40;;
11588;SDS011;5850;51.360;12.362;2023-05-07T09:32:35;7.20;;;6.50;;
11588;SDS011;5850;51.360;12.362;2023-05-07T09:35:05;7.93;;;6.00;;
11588;SDS011;5850;51.360;12.362;2023-05-07T09:37:37;7.23;;;6.63;;
11588;SDS011;5850;51.360;12.362;2023-05-07T09:40:07;6.83;;;6.23;;
11588;SDS011;5850;51.360;12.362;2023-05-07T09:42:47;7.80;;;7.10;;
11588;SDS011;5850;51.360;12.362;2023-05-07T09:45:26;7.13;;;6.43;;
11588;SDS011;5850;51.360;12.362;2023-05-07T09:47:56;7.00;;;6.13;;
11588;SDS011;5850;51.360;12.362;2023-05-07T09:50:26;7.20;;;6.60;;
11588;SDS011;5850;51.360;12.362;2023-05-07T09:52:56;7.27;;;6.57;;
11588;SDS011;5850;51.360;12.362;2023-05-07T09:55:25;7.00;;;6.30;;
11588;SDS011;5850;51.360;12.362;2023-05-07T09:57:54;7.33;;;6.63;;
11588;SDS011;5850;51.360;12.362;2023-05-07T10:00:22;7.43;;;6.77;;
11588;SDS011;5850;51.360;12.362;2023-05-07T10:02:52;7.77;;;6.73;;
11588;SDS011;5850;51.360;12.362;2023-05-07T10:05:24;7.63;;;5.73;;
11588;SDS011;5850;51.360;12.362;2023-05-07T10:07:53;7.53;;;6.77;;
11588;SDS011;5850;51.360;12.362;2023-05-07T10:10:23;7.50;;;6.07;;
11588;SDS011;5850;51.360;12.362;2023-05-07T10:12:52;6.70;;;6.00;;
11588;SDS011;5850;51.360;12.362;2023-05-07T10:15:21;5.90;;;5.30;;
11588;SDS011;5850;51.360;12.362;2023-05-07T10:17:50;5.97;;;5.40;;
11588;SDS011;5850;51.360;12.362;2023-05-07T10:20:21;5.70;;;5.20;;
11588;SDS011;5850;51.360;12.362;2023-05-07T10:22:49;5.47;;;4.97;;
11588;SDS011;5850;51.360;12.362;2023-05-07T10:25:27;6.10;;;5.50;;
11588;SDS011;5850;51.360;12.362;2023-05-07T10:27:59;6.93;;;6.23;;
11588;SDS011;5850;51.360;12.362;2023-05-07T10:33:06;6.53;;;5.93;;
11588;SDS011;5850;51.360;12.362;2023-05-07T10:35:39;6.53;;;5.33;;
11588;SDS011;5850;51.360;12.362;2023-05-07T10:38:10;5.30;;;4.80;;
11588;SDS011;5850;51.360;12.362;2023-05-07T10:40:39;5.83;;;5.33;;
11588;SDS011;5850;51.360;12.362;2023-05-07T10:43:08;5.20;;;4.70;;
11588;SDS011;5850;51.360;12.362;2023-05-07T10:45:36;5.63;;;5.00;;
11588;SDS011;5850;51.360;12.362;2023-05-07T10:48:14;7.37;;;4.53;;
11588;SDS011;5850;51.360;12.362;2023-05-07T10:51:18;5.93;;;5.43;;
11588;SDS011;5850;51.360;12.362;2023-05-07T10:53:47;6.23;;;5.50;;
11588;SDS011;5850;51.360;12.362;2023-05-07T10:58:47;6.90;;;6.20;;
11588;SDS011;5850;51.360;12.362;2023-05-07T11:01:15;7.93;;;7.07;;
11588;SDS011;5850;51.360;12.362;2023-05-07T11:04:24;8.17;;;7.40;;
11588;SDS011;5850;51.360;12.362;2023-05-07T11:15:05;7.57;;;6.63;;
11588;SDS011;5850;51.360;12.362;2023-05-07T11:17:57;7.00;;;6.30;;
11588;SDS011;5850;51.360;12.362;2023-05-07T11:26:05;7.37;;;6.67;;
11588;SDS011;5850;51.360;12.362;2023-05-07T11:28:39;7.13;;;6.43;;
11588;SDS011;5850;51.360;12.362;2023-05-07T11:31:11;6.33;;;5.83;;
11588;SDS011;5850;51.360;12.362;2023-05-07T11:33:40;6.20;;;5.60;;
11588;SDS011;5850;51.360;12.362;2023-05-07T11:36:11;6.77;;;6.13;;
11588;SDS011;5850;51.360;12.362;2023-05-07T11:38:39;6.10;;;5.50;;
11588;SDS011;5850;51.360;12.362;2023-05-07T11:41:08;7.23;;;6.10;;
11588;SDS011;5850;51.360;12.362;2023-05-07T11:43:37;6.60;;;5.90;;
11588;SDS011;5850;51.360;12.362;2023-05-07T11:46:07;9.37;;;6.37;;
11588;SDS011;5850;51.360;12.362;2023-05-07T11:48:40;6.97;;;6.27;;
11588;SDS011;5850;51.360;12.362;2023-05-07T11:51:08;6.33;;;5.73;;
11588;SDS011;5850;51.360;12.362;2023-05-07T11:53:39;6.77;;;6.03;;
11588;SDS011;5850;51.360;12.362;2023-05-07T11:56:10;7.80;;;5.60;;
11588;SDS011;5850;51.360;12.362;2023-05-07T11:58:40;6.30;;;5.70;;
11588;SDS011;5850;51.360;12.362;2023-05-07T12:01:10;7.37;;;5.63;;
11588;SDS011;5850;51.360;12.362;2023-05-07T12:03:41;6.70;;;6.00;;
11588;SDS011;5850;51.360;12.362;2023-05-07T12:06:14;6.80;;;6.10;;
11588;SDS011;5850;51.360;12.362;2023-05-07T12:08:44;5.77;;;5.23;;
11588;SDS011;5850;51.360;12.362;2023-05-07T12:11:15;5.87;;;5.37;;
11588;SDS011;5850;51.360;12.362;2023-05-07T12:13:50;7.10;;;6.23;;
11588;SDS011;5850;51.360;12.362;2023-05-07T12:16:18;6.27;;;5.67;;
11588;SDS011;5850;51.360;12.362;2023-05-07T12:18:48;6.90;;;6.00;;
11588;SDS011;5850;51.360;12.362;2023-05-07T12:21:16;7.10;;;6.10;;
11588;SDS011;5850;51.360;12.362;2023-05-07T12:23:45;7.10;;;5.13;;
11588;SDS011;5850;51.360;12.362;2023-05-07T12:26:14;7.67;;;6.03;;
11588;SDS011;5850;51.360;12.362;2023-05-07T12:28:43;6.30;;;5.73;;
11588;SDS011;5850;51.360;12.362;2023-05-07T12:31:12;6.87;;;6.00;;
11588;SDS011;5850;51.360;12.362;2023-05-07T12:33:42;5.97;;;5.40;;
11588;SDS011;5850;51.360;12.362;2023-05-07T12:36:12;7.10;;;6.40;;
11588;SDS011;5850;51.360;12.362;2023-05-07T12:38:40;7.83;;;6.97;;
11588;SDS011;5850;51.360;12.362;2023-05-07T12:41:10;8.77;;;6.77;;
11588;SDS011;5850;51.360;12.362;2023-05-07T12:43:38;6.60;;;6.00;;
11588;SDS011;5850;51.360;12.362;2023-05-07T12:46:07;7.47;;;5.70;;
11588;SDS011;5850;51.360;12.362;2023-05-07T12:48:36;6.93;;;6.23;;
11588;SDS011;5850;51.360;12.362;2023-05-07T12:51:06;10.10;;;6.20;;
11588;SDS011;5850;51.360;12.362;2023-05-07T12:53:39;6.30;;;5.50;;
11588;SDS011;5850;51.360;12.362;2023-05-07T12:56:09;5.47;;;4.97;;
11588;SDS011;5850;51.360;12.362;2023-05-07T12:58:37;4.83;;;4.43;;
11588;SDS011;5850;51.360;12.362;2023-05-07T13:01:06;5.83;;;4.40;;
11588;SDS011;5850;51.360;12.362;2023-05-07T13:03:37;5.50;;;4.70;;
11588;SDS011;5850;51.360;12.362;2023-05-07T13:06:09;5.23;;;4.73;;
11588;SDS011;5850;51.360;12.362;2023-05-07T13:08:39;5.20;;;4.70;;
11588;SDS011;5850;51.360;12.362;2023-05-07T13:11:10;6.53;;;4.97;;
11588;SDS011;5850;51.360;12.362;2023-05-07T13:13:40;5.20;;;4.70;;
11588;SDS011;5850;51.360;12.362;2023-05-07T13:16:09;5.07;;;4.60;;
11588;SDS011;5850;51.360;12.362;2023-05-07T13:18:39;5.57;;;5.07;;
11588;SDS011;5850;51.360;12.362;2023-05-07T13:21:10;5.97;;;5.37;;
11588;SDS011;5850;51.360;12.362;2023-05-07T13:23:39;5.73;;;4.90;;
11588;SDS011;5850;51.360;12.362;2023-05-07T13:26:08;5.07;;;4.67;;
11588;SDS011;5850;51.360;12.362;2023-05-07T13:28:54;5.40;;;4.90;;
11588;SDS011;5850;51.360;12.362;2023-05-07T13:31:23;5.27;;;4.73;;
11588;SDS011;5850;51.360;12.362;2023-05-07T13:33:52;5.10;;;4.60;;
11588;SDS011;5850;51.360;12.362;2023-05-07T13:36:22;5.20;;;4.73;;
11588;SDS011;5850;51.360;12.362;2023-05-07T13:38:50;4.87;;;4.37;;
11588;SDS011;5850;51.360;12.362;2023-05-07T13:41:19;4.83;;;4.33;;
11588;SDS011;5850;51.360;12.362;2023-05-07T13:43:47;6.13;;;4.73;;
11588;SDS011;5850;51.360;12.362;2023-05-07T13:46:16;4.90;;;4.50;;
11588;SDS011;5850;51.360;12.362;2023-05-07T13:48:45;7.23;;;4.60;;
11588;SDS011;5850;51.360;12.362;2023-05-07T13:51:13;6.53;;;5.33;;
11588;SDS011;5850;51.360;12.362;2023-05-07T13:53:41;5.47;;;3.87;;
11588;SDS011;5850;51.360;12.362;2023-05-07T13:56:09;4.43;;;4.03;;
11588;SDS011;5850;51.360;12.362;2023-05-07T13:58:37;4.40;;;3.93;;
11588;SDS011;5850;51.360;12.362;2023-05-07T14:01:24;4.60;;;4.03;;
11588;SDS011;5850;51.360;12.362;2023-05-07T14:03:53;4.70;;;3.83;;
11588;SDS011;5850;51.360;12.362;2023-05-07T14:06:21;4.23;;;3.70;;
11588;SDS011;5850;51.360;12.362;2023-05-07T14:08:49;4.43;;;3.80;;
11588;SDS011;5850;51.360;12.362;2023-05-07T14:11:18;4.60;;;3.80;;
11588;SDS011;5850;51.360;12.362;2023-05-07T14:13:47;4.23;;;3.83;;
11588;SDS011;5850;51.360;12.362;2023-05-07T14:16:15;5.37;;;3.53;;
11588;SDS011;5850;51.360;12.362;2023-05-07T14:18:44;6.13;;;3.47;;
11588;SDS011;5850;51.360;12.362;2023-05-07T14:21:12;3.30;;;3.00;;
11588;SDS011;5850;51.360;12.362;2023-05-07T14:23:40;3.60;;;3.30;;
11588;SDS011;5850;51.360;12.362;2023-05-07T14:26:09;3.53;;;3.23;;
11588;SDS011;5850;51.360;12.362;2023-05-07T14:28:38;3.83;;;3.47;;
11588;SDS011;5850;51.360;12.362;2023-05-07T14:31:08;4.23;;;3.70;;
11588;SDS011;5850;51.360;12.362;2023-05-07T14:33:37;3.20;;;2.93;;
11588;SDS011;5850;51.360;12.362;2023-05-07T14:36:07;3.50;;;3.20;;
11588;SDS011;5850;51.360;12.362;2023-05-07T14:38:36;3.93;;;3.53;;
11588;SDS011;5850;51.360;12.362;2023-05-07T14:41:04;3.50;;;3.20;;
11588;SDS011;5850;51.360;12.362;2023-05-07T14:43:33;3.13;;;2.80;;
11588;SDS011;5850;51.360;12.362;2023-05-07T14:46:01;3.13;;;2.83;;
11588;SDS011;5850;51.360;12.362;2023-05-07T14:48:29;2.93;;;2.73;;
11588;SDS011;5850;51.360;12.362;2023-05-07T14:50:58;3.67;;;3.00;;
11588;SDS011;5850;51.360;12.362;2023-05-07T14:53:27;4.07;;;3.77;;
11588;SDS011;5850;51.360;12.362;2023-05-07T14:55:55;4.00;;;3.37;;
11588;SDS011;5850;51.360;12.362;2023-05-07T14:58:23;3.50;;;3.20;;
11588;SDS011;5850;51.360;12.362;2023-05-07T15:00:51;3.60;;;3.30;;
11588;SDS011;5850;51.360;12.362;2023-05-07T15:03:19;3.70;;;3.40;;
11588;SDS011;5850;51.360;12.362;2023-05-07T15:05:50;3.33;;;3.03;;
11588;SDS011;5850;51.360;12.362;2023-05-07T15:08:18;4.30;;;2.60;;
11588;SDS011;5850;51.360;12.362;2023-05-07T15:10:47;3.60;;;2.90;;
11588;SDS011;5850;51.360;12.362;2023-05-07T15:13:15;3.37;;;3.07;;
11588;SDS011;5850;51.360;12.362;2023-05-07T15:15:44;3.23;;;2.93;;
11588;SDS011;5850;51.360;12.362;2023-05-07T15:18:13;3.57;;;3.27;;
11588;SDS011;5850;51.360;12.362;2023-05-07T15:20:41;4.93;;;3.27;;
11588;SDS011;5850;51.360;12.362;2023-05-07T15:23:10;3.70;;;3.33;;
11588;SDS011;5850;51.360;12.362;2023-05-07T15:25:40;4.20;;;3.20;;
11588;SDS011;5850;51.360;12.362;2023-05-07T15:28:09;4.27;;;3.67;;
11588;SDS011;5850;51.360;12.362;2023-05-07T15:30:37;4.13;;;3.80;;
11588;SDS011;5850;51.360;12.362;2023-05-07T15:33:06;3.60;;;3.30;;
11588;SDS011;5850;51.360;12.362;2023-05-07T15:35:34;3.90;;;3.43;;
11588;SDS011;5850;51.360;12.362;2023-05-07T15:38:03;4.00;;;3.60;;
11588;SDS011;5850;51.360;12.362;2023-05-07T15:40:32;4.27;;;3.67;;